Open Text Price to Sales Ratio 2010-2023 | OTEX

Historical PS ratio values for Open Text (OTEX) over the last 10 years. The current P/S ratio for Open Text as of March 04, 2024 is . For more information on how our historical price data is adjusted see the Stock Price Adjustment Guide.
Open Text P/S Ratio Historical Data
Date Stock Price TTM Sales per Share Price to Sales Ratio
2024-03-04 39.54 1.88
2023-12-31 41.75 $20.99 1.99
2023-09-30 34.66 $18.68 1.86
2023-06-30 40.77 $16.59 2.46
2023-03-31 37.61 $14.40 2.61
2022-12-31 28.71 $13.05 2.20
2022-09-30 25.40 $12.94 1.96
2022-06-30 35.98 $12.83 2.80
2022-03-31 40.10 $12.78 3.14
2021-12-31 44.67 $12.57 3.55
2021-09-30 45.65 $12.49 3.65
2021-06-30 47.38 $12.40 3.82
2021-03-31 44.32 $12.17 3.64
2020-12-31 42.04 $12.12 3.47
2020-09-30 38.89 $11.82 3.29
2020-06-30 38.95 $11.44 3.40
2020-03-31 31.89 $11.17 2.85
2019-12-31 40.07 $10.84 3.70
2019-09-30 36.96 $10.73 3.44
2019-06-30 37.15 $10.64 3.49
2019-03-31 34.50 $10.69 3.23
2018-12-31 29.15 $10.59 2.75
2018-09-30 34.01 $10.61 3.21
2018-06-30 31.34 $10.54 2.97
2018-03-31 30.86 $10.31 2.99
2017-12-31 31.52 $9.99 3.16
2017-09-30 28.42 $9.43 3.01
2017-06-30 27.64 $9.03 3.06
2017-03-31 29.68 $8.42 3.53
2016-12-31 26.88 $7.99 3.36
2016-09-30 28.10 $7.71 3.64
2016-06-30 25.54 $7.47 3.42
2016-03-31 22.27 $7.45 2.99
2015-12-31 20.53 $7.46 2.75
2015-09-30 19.08 $7.46 2.56
2015-06-30 17.21 $7.53 2.29
2015-03-31 22.35 $7.62 2.93
2014-12-31 24.55 $7.61 3.23
2014-09-30 23.28 $7.23 3.22
2014-06-30 20.08 $6.75 2.97
2014-03-31 19.91 $6.17 3.22
2013-12-31 19.13 $5.79 3.30
2013-09-30 15.48 $5.76 2.69
2013-06-30 14.13 $5.78 2.45
2013-03-31 12.13 $5.61 2.16
2012-12-31 11.49 $5.42 2.12
2012-09-30 11.33 $5.30 2.14
2012-06-30 10.25 $5.14 1.99
2012-03-31 12.57 $5.06 2.48
2011-12-31 10.51 $4.94 2.13
2011-09-30 10.71 $4.72 2.27
2011-06-30 13.16 $4.43 2.97
2011-03-31 12.81 $4.25 3.01
2010-12-31 9.47 $4.05 2.34
2010-09-30 9.67 $3.98 2.43
2010-06-30 7.71 $3.97 1.94
2010-03-31 9.76 $3.88 2.51
2009-12-31 8.35 $3.86 2.16
Sector Industry Market Cap Revenue
Computer and Technology Computer Software $10.681B $4.485B
Open Text Corporation is engaged in development of innovative intranet, extranet and e-Business applications. Since creating one of the first search engines to index the World Wide Web, the company has remained at the forefront of Internet-based technologies. Open Text solutions allow individuals, teams, organizations, and global trading communities to collaborate on projects, share ideas and accelerate innovation to the fastest possible speed. Open Text Corporation is headquartered in Waterloo, Canada.
Stock Name Country Market Cap PE Ratio
Microsoft (MSFT) United States $3087.347B 37.57
Oracle (ORCL) United States $312.772B 26.40
Salesforce (CRM) United States $306.740B 51.28
Adobe (ADBE) United States $258.060B 44.64
Intuit (INTU) United States $186.626B 62.58
Synopsys (SNPS) United States $90.207B 65.06
Cadence Design Systems (CDNS) United States $85.821B 78.22
Dassault Systemes SA (DASTY) France $62.124B 40.76
Autodesk (ADSK) United States $56.632B 55.74
ANSYS (ANSS) United States $29.553B 50.02
PTC (PTC) United States $22.447B 66.11
MicroStrategy (MSTR) United States $18.315B 36.49
SS&C Technologies Holdings (SSNC) United States $15.853B 15.61
Manhattan Associates (MANH) United States $15.807B 91.05
Descartes Systems Group (DSGX) Canada $7.548B 67.70
Trend Micro (TMICY) Japan $7.244B 64.28
Pegasystems (PEGA) United States $5.589B 76.56
CommVault Systems (CVLT) United States $4.272B 76.23
Blackbaud (BLKB) United States $3.789B 33.67
ACI Worldwide (ACIW) United States $3.419B 17.56
Progress Software (PRGS) United States $2.341B 14.74
Verint Systems (VRNT) United States $1.982B 20.70
Sapiens (SPNS) Israel $1.708B 24.20
PROS Holdings (PRO) United States $1.681B 0.00
BlackBerry (BB) Canada $1.637B 0.00
Simulations Plus (SLP) United States $0.829B 61.04
Rand Worldwide (RWWI) United States $0.568B 0.00
Magic Software Enterprises (MGIC) Israel $0.546B 10.81
American Software (AMSWA) United States $0.380B 30.92
OptimizeRx (OPRX) United States $0.290B 0.00
Canaan (CAN) China $0.286B 0.00
Rigetti Computing (RGTI) United States $0.273B 0.00
Icad Inc (ICAD) United States $0.049B 0.00
Wetouch Technology (WETH) $0.039B 0.00
NetSol Technologies (NTWK) United States $0.032B 0.00
Smith Micro Software (SMSI) United States $0.030B 0.00
Hanryu Holdings (HRYU) South Korea $0.022B 0.00
Neonode (NEON) Sweden $0.022B 0.00
GSE Systems (GVP) United States $0.006B 0.00
SAP SE (SAP) Germany $0.000B 49.74